sensor_id;sensor_type;location;lat;lon;timestamp;P1;durP1;ratioP1;P2;durP2;ratioP2
50968;SDS011;36982;51.474;7.228;2024-01-10T00:01:36;2.93;;;1.90;;
50968;SDS011;36982;51.474;7.228;2024-01-10T00:04:01;5.10;;;2.03;;
50968;SDS011;36982;51.474;7.228;2024-01-10T00:06:27;3.27;;;2.03;;
50968;SDS011;36982;51.474;7.228;2024-01-10T00:08:53;3.63;;;2.00;;
50968;SDS011;36982;51.474;7.228;2024-01-10T00:11:19;2.73;;;1.30;;
50968;SDS011;36982;51.474;7.228;2024-01-10T00:13:44;3.77;;;2.23;;
50968;SDS011;36982;51.474;7.228;2024-01-10T00:16:13;3.03;;;1.50;;
50968;SDS011;36982;51.474;7.228;2024-01-10T00:18:39;3.07;;;1.50;;
50968;SDS011;36982;51.474;7.228;2024-01-10T00:21:05;3.67;;;2.13;;
50968;SDS011;36982;51.474;7.228;2024-01-10T00:23:31;4.53;;;1.90;;
50968;SDS011;36982;51.474;7.228;2024-01-10T00:25:57;4.97;;;1.97;;
50968;SDS011;36982;51.474;7.228;2024-01-10T00:28:23;4.13;;;2.13;;
50968;SDS011;36982;51.474;7.228;2024-01-10T00:30:49;3.17;;;1.37;;
50968;SDS011;36982;51.474;7.228;2024-01-10T00:33:15;3.93;;;2.10;;
50968;SDS011;36982;51.474;7.228;2024-01-10T00:35:41;2.83;;;1.80;;
50968;SDS011;36982;51.474;7.228;2024-01-10T00:38:06;3.73;;;1.90;;
50968;SDS011;36982;51.474;7.228;2024-01-10T00:40:32;2.87;;;1.80;;
50968;SDS011;36982;51.474;7.228;2024-01-10T00:42:57;5.97;;;1.57;;
50968;SDS011;36982;51.474;7.228;2024-01-10T00:45:23;3.90;;;1.67;;
50968;SDS011;36982;51.474;7.228;2024-01-10T00:47:49;1.33;;;0.93;;
50968;SDS011;36982;51.474;7.228;2024-01-10T00:50:15;4.70;;;2.20;;
50968;SDS011;36982;51.474;7.228;2024-01-10T00:52:41;3.63;;;1.90;;
50968;SDS011;36982;51.474;7.228;2024-01-10T00:55:07;3.80;;;1.70;;
50968;SDS011;36982;51.474;7.228;2024-01-10T00:57:33;3.43;;;1.33;;
50968;SDS011;36982;51.474;7.228;2024-01-10T00:59:58;8.60;;;2.00;;
50968;SDS011;36982;51.474;7.228;2024-01-10T01:02:24;2.43;;;1.53;;
50968;SDS011;36982;51.474;7.228;2024-01-10T01:04:50;5.83;;;2.47;;
50968;SDS011;36982;51.474;7.228;2024-01-10T01:07:15;4.10;;;2.30;;
50968;SDS011;36982;51.474;7.228;2024-01-10T01:09:41;5.93;;;2.37;;
50968;SDS011;36982;51.474;7.228;2024-01-10T01:12:06;3.30;;;1.93;;
50968;SDS011;36982;51.474;7.228;2024-01-10T01:14:32;4.33;;;2.10;;
50968;SDS011;36982;51.474;7.228;2024-01-10T01:16:58;4.90;;;1.97;;
50968;SDS011;36982;51.474;7.228;2024-01-10T01:19:24;2.97;;;1.73;;
50968;SDS011;36982;51.474;7.228;2024-01-10T01:21:49;4.77;;;2.17;;
50968;SDS011;36982;51.474;7.228;2024-01-10T01:24:15;3.80;;;1.70;;
50968;SDS011;36982;51.474;7.228;2024-01-10T01:26:40;5.97;;;2.20;;
50968;SDS011;36982;51.474;7.228;2024-01-10T01:29:06;3.67;;;1.40;;
50968;SDS011;36982;51.474;7.228;2024-01-10T01:31:33;3.73;;;1.83;;
50968;SDS011;36982;51.474;7.228;2024-01-10T01:33:59;4.30;;;1.90;;
50968;SDS011;36982;51.474;7.228;2024-01-10T01:36:24;3.67;;;1.80;;
50968;SDS011;36982;51.474;7.228;2024-01-10T01:38:50;3.07;;;1.83;;
50968;SDS011;36982;51.474;7.228;2024-01-10T01:41:16;9.07;;;2.20;;
50968;SDS011;36982;51.474;7.228;2024-01-10T01:43:42;2.53;;;1.30;;
50968;SDS011;36982;51.474;7.228;2024-01-10T01:46:08;2.43;;;1.50;;
50968;SDS011;36982;51.474;7.228;2024-01-10T01:48:34;4.27;;;1.67;;
50968;SDS011;36982;51.474;7.228;2024-01-10T01:51:02;2.40;;;1.50;;
50968;SDS011;36982;51.474;7.228;2024-01-10T01:53:30;3.43;;;1.50;;
50968;SDS011;36982;51.474;7.228;2024-01-10T01:55:57;3.03;;;1.67;;
50968;SDS011;36982;51.474;7.228;2024-01-10T01:58:25;2.83;;;1.53;;
50968;SDS011;36982;51.474;7.228;2024-01-10T02:00:51;3.33;;;1.93;;
50968;SDS011;36982;51.474;7.228;2024-01-10T02:03:17;6.70;;;2.30;;
50968;SDS011;36982;51.474;7.228;2024-01-10T02:05:43;3.37;;;0.90;;
50968;SDS011;36982;51.474;7.228;2024-01-10T02:08:08;3.03;;;1.80;;
50968;SDS011;36982;51.474;7.228;2024-01-10T02:10:35;2.87;;;1.73;;
50968;SDS011;36982;51.474;7.228;2024-01-10T02:13:01;4.47;;;2.20;;
50968;SDS011;36982;51.474;7.228;2024-01-10T02:15:27;4.67;;;2.13;;
50968;SDS011;36982;51.474;7.228;2024-01-10T02:17:53;3.33;;;2.10;;
50968;SDS011;36982;51.474;7.228;2024-01-10T02:20:18;3.53;;;1.90;;
50968;SDS011;36982;51.474;7.228;2024-01-10T02:22:46;5.40;;;2.37;;
50968;SDS011;36982;51.474;7.228;2024-01-10T02:25:12;5.10;;;2.30;;
50968;SDS011;36982;51.474;7.228;2024-01-10T02:27:42;3.17;;;1.83;;
50968;SDS011;36982;51.474;7.228;2024-01-10T02:30:08;3.83;;;2.20;;
50968;SDS011;36982;51.474;7.228;2024-01-10T02:32:35;3.90;;;2.00;;
50968;SDS011;36982;51.474;7.228;2024-01-10T02:35:01;5.23;;;2.23;;
50968;SDS011;36982;51.474;7.228;2024-01-10T02:37:27;4.30;;;2.50;;
50968;SDS011;36982;51.474;7.228;2024-01-10T02:39:53;4.30;;;2.13;;
50968;SDS011;36982;51.474;7.228;2024-01-10T02:42:18;4.07;;;1.87;;
50968;SDS011;36982;51.474;7.228;2024-01-10T02:44:44;4.63;;;2.30;;
50968;SDS011;36982;51.474;7.228;2024-01-10T02:47:10;4.27;;;1.87;;
50968;SDS011;36982;51.474;7.228;2024-01-10T02:49:37;4.90;;;2.20;;
50968;SDS011;36982;51.474;7.228;2024-01-10T02:52:03;4.70;;;2.00;;
50968;SDS011;36982;51.474;7.228;2024-01-10T02:54:28;4.40;;;1.70;;
50968;SDS011;36982;51.474;7.228;2024-01-10T02:56:54;4.77;;;2.20;;
50968;SDS011;36982;51.474;7.228;2024-01-10T02:59:20;5.33;;;2.37;;
50968;SDS011;36982;51.474;7.228;2024-01-10T03:01:45;3.30;;;1.80;;
50968;SDS011;36982;51.474;7.228;2024-01-10T03:04:11;4.10;;;2.07;;
50968;SDS011;36982;51.474;7.228;2024-01-10T03:06:37;1.33;;;0.97;;
50968;SDS011;36982;51.474;7.228;2024-01-10T03:09:02;2.60;;;1.67;;
50968;SDS011;36982;51.474;7.228;2024-01-10T03:11:28;4.03;;;2.40;;
50968;SDS011;36982;51.474;7.228;2024-01-10T03:14:28;3.97;;;1.50;;
50968;SDS011;36982;51.474;7.228;2024-01-10T03:16:47;2.63;;;1.27;;
50968;SDS011;36982;51.474;7.228;2024-01-10T03:19:13;2.50;;;1.10;;
50968;SDS011;36982;51.474;7.228;2024-01-10T03:21:39;3.83;;;1.90;;
50968;SDS011;36982;51.474;7.228;2024-01-10T03:24:05;3.23;;;1.90;;
50968;SDS011;36982;51.474;7.228;2024-01-10T03:26:31;3.53;;;1.80;;
50968;SDS011;36982;51.474;7.228;2024-01-10T03:28:56;2.70;;;1.70;;
50968;SDS011;36982;51.474;7.228;2024-01-10T03:31:22;5.90;;;2.47;;
50968;SDS011;36982;51.474;7.228;2024-01-10T03:33:48;3.30;;;1.90;;
50968;SDS011;36982;51.474;7.228;2024-01-10T03:36:17;5.20;;;2.00;;
50968;SDS011;36982;51.474;7.228;2024-01-10T03:38:43;3.37;;;2.07;;
50968;SDS011;36982;51.474;7.228;2024-01-10T03:41:16;5.00;;;2.10;;
50968;SDS011;36982;51.474;7.228;2024-01-10T03:43:43;5.73;;;2.13;;
50968;SDS011;36982;51.474;7.228;2024-01-10T03:46:09;5.00;;;2.37;;
50968;SDS011;36982;51.474;7.228;2024-01-10T03:48:35;5.87;;;2.37;;
50968;SDS011;36982;51.474;7.228;2024-01-10T03:51:02;5.13;;;2.33;;
50968;SDS011;36982;51.474;7.228;2024-01-10T03:53:28;4.47;;;1.93;;
50968;SDS011;36982;51.474;7.228;2024-01-10T03:55:54;3.63;;;1.80;;
50968;SDS011;36982;51.474;7.228;2024-01-10T03:58:20;5.40;;;2.10;;
50968;SDS011;36982;51.474;7.228;2024-01-10T04:00:45;4.50;;;2.30;;
50968;SDS011;36982;51.474;7.228;2024-01-10T04:03:11;5.73;;;1.80;;
50968;SDS011;36982;51.474;7.228;2024-01-10T04:05:36;6.67;;;1.23;;
50968;SDS011;36982;51.474;7.228;2024-01-10T04:08:02;4.03;;;1.60;;
50968;SDS011;36982;51.474;7.228;2024-01-10T04:10:28;4.00;;;2.23;;
50968;SDS011;36982;51.474;7.228;2024-01-10T04:12:54;4.77;;;2.30;;
50968;SDS011;36982;51.474;7.228;2024-01-10T04:15:20;4.50;;;2.30;;
50968;SDS011;36982;51.474;7.228;2024-01-10T04:17:45;4.83;;;2.40;;
50968;SDS011;36982;51.474;7.228;2024-01-10T04:20:11;4.70;;;2.57;;
50968;SDS011;36982;51.474;7.228;2024-01-10T04:22:37;5.23;;;2.43;;
50968;SDS011;36982;51.474;7.228;2024-01-10T04:25:05;3.60;;;2.20;;
50968;SDS011;36982;51.474;7.228;2024-01-10T04:27:31;4.23;;;2.50;;
50968;SDS011;36982;51.474;7.228;2024-01-10T04:29:57;5.33;;;2.67;;
50968;SDS011;36982;51.474;7.228;2024-01-10T04:32:23;3.97;;;2.50;;
50968;SDS011;36982;51.474;7.228;2024-01-10T04:34:49;4.30;;;2.50;;
50968;SDS011;36982;51.474;7.228;2024-01-10T04:37:15;4.40;;;2.60;;
50968;SDS011;36982;51.474;7.228;2024-01-10T04:39:41;4.00;;;2.27;;
50968;SDS011;36982;51.474;7.228;2024-01-10T04:42:08;4.40;;;2.27;;
50968;SDS011;36982;51.474;7.228;2024-01-10T04:44:35;4.67;;;2.27;;
50968;SDS011;36982;51.474;7.228;2024-01-10T04:47:01;4.67;;;2.50;;
50968;SDS011;36982;51.474;7.228;2024-01-10T04:49:27;5.40;;;2.60;;
50968;SDS011;36982;51.474;7.228;2024-01-10T04:51:53;4.63;;;2.23;;
50968;SDS011;36982;51.474;7.228;2024-01-10T04:54:18;5.47;;;2.37;;
50968;SDS011;36982;51.474;7.228;2024-01-10T04:56:44;5.03;;;2.57;;
50968;SDS011;36982;51.474;7.228;2024-01-10T04:59:09;5.03;;;2.67;;
50968;SDS011;36982;51.474;7.228;2024-01-10T05:01:35;5.63;;;2.33;;
50968;SDS011;36982;51.474;7.228;2024-01-10T05:04:02;2.93;;;1.60;;
50968;SDS011;36982;51.474;7.228;2024-01-10T05:06:28;4.03;;;2.03;;
50968;SDS011;36982;51.474;7.228;2024-01-10T05:08:53;1.80;;;1.00;;
50968;SDS011;36982;51.474;7.228;2024-01-10T05:11:22;5.40;;;2.30;;
50968;SDS011;36982;51.474;7.228;2024-01-10T05:13:49;4.77;;;2.57;;
50968;SDS011;36982;51.474;7.228;2024-01-10T05:16:16;5.47;;;2.27;;
50968;SDS011;36982;51.474;7.228;2024-01-10T05:18:42;4.33;;;2.33;;
50968;SDS011;36982;51.474;7.228;2024-01-10T05:21:07;5.87;;;2.70;;
50968;SDS011;36982;51.474;7.228;2024-01-10T05:23:33;4.97;;;2.43;;
50968;SDS011;36982;51.474;7.228;2024-01-10T05:25:59;7.53;;;2.20;;
50968;SDS011;36982;51.474;7.228;2024-01-10T05:28:25;4.03;;;2.07;;
50968;SDS011;36982;51.474;7.228;2024-01-10T05:30:50;3.87;;;2.33;;
50968;SDS011;36982;51.474;7.228;2024-01-10T05:33:16;4.23;;;2.70;;
50968;SDS011;36982;51.474;7.228;2024-01-10T05:35:41;4.73;;;2.47;;
50968;SDS011;36982;51.474;7.228;2024-01-10T05:38:07;5.07;;;2.70;;
50968;SDS011;36982;51.474;7.228;2024-01-10T05:40:32;5.80;;;3.00;;
50968;SDS011;36982;51.474;7.228;2024-01-10T05:42:58;5.90;;;2.23;;
50968;SDS011;36982;51.474;7.228;2024-01-10T05:45:27;4.90;;;2.67;;
50968;SDS011;36982;51.474;7.228;2024-01-10T05:47:53;6.13;;;3.13;;
50968;SDS011;36982;51.474;7.228;2024-01-10T05:50:19;7.43;;;2.40;;
50968;SDS011;36982;51.474;7.228;2024-01-10T05:52:45;4.53;;;2.20;;
50968;SDS011;36982;51.474;7.228;2024-01-10T05:55:11;5.03;;;2.80;;
50968;SDS011;36982;51.474;7.228;2024-01-10T05:57:37;4.17;;;2.37;;
50968;SDS011;36982;51.474;7.228;2024-01-10T06:00:03;4.30;;;2.07;;
50968;SDS011;36982;51.474;7.228;2024-01-10T06:02:34;4.17;;;2.00;;
50968;SDS011;36982;51.474;7.228;2024-01-10T06:05:09;3.83;;;1.70;;
50968;SDS011;36982;51.474;7.228;2024-01-10T06:07:36;3.73;;;1.87;;
50968;SDS011;36982;51.474;7.228;2024-01-10T06:10:02;4.97;;;2.57;;
50968;SDS011;36982;51.474;7.228;2024-01-10T06:12:28;5.23;;;2.50;;
50968;SDS011;36982;51.474;7.228;2024-01-10T06:14:54;6.50;;;2.60;;
50968;SDS011;36982;51.474;7.228;2024-01-10T06:17:20;4.53;;;1.77;;
50968;SDS011;36982;51.474;7.228;2024-01-10T06:19:46;3.73;;;2.10;;
50968;SDS011;36982;51.474;7.228;2024-01-10T06:22:11;4.40;;;2.50;;
50968;SDS011;36982;51.474;7.228;2024-01-10T06:24:37;4.77;;;2.13;;
50968;SDS011;36982;51.474;7.228;2024-01-10T06:27:03;5.50;;;2.77;;
50968;SDS011;36982;51.474;7.228;2024-01-10T06:29:30;6.10;;;2.67;;
50968;SDS011;36982;51.474;7.228;2024-01-10T06:31:56;10.80;;;2.53;;
50968;SDS011;36982;51.474;7.228;2024-01-10T06:34:22;5.57;;;2.37;;
50968;SDS011;36982;51.474;7.228;2024-01-10T06:36:48;5.57;;;2.80;;
50968;SDS011;36982;51.474;7.228;2024-01-10T06:39:14;3.80;;;2.37;;
50968;SDS011;36982;51.474;7.228;2024-01-10T06:41:40;3.00;;;1.93;;
50968;SDS011;36982;51.474;7.228;2024-01-10T06:44:07;3.70;;;2.37;;
50968;SDS011;36982;51.474;7.228;2024-01-10T06:46:33;6.63;;;3.30;;
50968;SDS011;36982;51.474;7.228;2024-01-10T06:48:59;3.50;;;2.13;;
50968;SDS011;36982;51.474;7.228;2024-01-10T06:51:25;4.47;;;2.50;;
50968;SDS011;36982;51.474;7.228;2024-01-10T06:53:51;6.50;;;3.00;;
50968;SDS011;36982;51.474;7.228;2024-01-10T06:56:17;4.47;;;2.70;;
50968;SDS011;36982;51.474;7.228;2024-01-10T06:58:43;4.23;;;2.10;;
50968;SDS011;36982;51.474;7.228;2024-01-10T07:01:12;7.33;;;2.50;;
50968;SDS011;36982;51.474;7.228;2024-01-10T07:03:41;4.17;;;2.73;;
50968;SDS011;36982;51.474;7.228;2024-01-10T07:06:07;6.20;;;2.70;;
50968;SDS011;36982;51.474;7.228;2024-01-10T07:08:33;4.93;;;2.60;;
50968;SDS011;36982;51.474;7.228;2024-01-10T07:10:58;8.13;;;3.77;;
50968;SDS011;36982;51.474;7.228;2024-01-10T07:13:24;4.77;;;2.33;;
50968;SDS011;36982;51.474;7.228;2024-01-10T07:15:50;3.77;;;1.77;;
50968;SDS011;36982;51.474;7.228;2024-01-10T07:18:18;5.90;;;3.27;;
50968;SDS011;36982;51.474;7.228;2024-01-10T07:20:43;5.37;;;2.40;;
50968;SDS011;36982;51.474;7.228;2024-01-10T07:23:09;4.03;;;2.07;;
50968;SDS011;36982;51.474;7.228;2024-01-10T07:25:35;2.83;;;1.53;;
50968;SDS011;36982;51.474;7.228;2024-01-10T07:28:02;7.00;;;2.77;;
50968;SDS011;36982;51.474;7.228;2024-01-10T07:30:28;6.20;;;2.53;;
50968;SDS011;36982;51.474;7.228;2024-01-10T07:32:58;5.23;;;2.90;;
50968;SDS011;36982;51.474;7.228;2024-01-10T07:35:23;4.63;;;2.50;;
50968;SDS011;36982;51.474;7.228;2024-01-10T07:37:49;5.70;;;3.03;;
50968;SDS011;36982;51.474;7.228;2024-01-10T07:40:15;4.90;;;2.13;;
50968;SDS011;36982;51.474;7.228;2024-01-10T07:42:40;8.00;;;3.03;;
50968;SDS011;36982;51.474;7.228;2024-01-10T07:45:08;5.40;;;2.90;;
50968;SDS011;36982;51.474;7.228;2024-01-10T07:47:34;3.77;;;1.77;;
50968;SDS011;36982;51.474;7.228;2024-01-10T07:50:12;4.30;;;2.50;;
50968;SDS011;36982;51.474;7.228;2024-01-10T07:52:39;5.07;;;2.67;;
50968;SDS011;36982;51.474;7.228;2024-01-10T07:55:05;6.63;;;2.63;;
50968;SDS011;36982;51.474;7.228;2024-01-10T07:57:31;6.40;;;3.37;;
50968;SDS011;36982;51.474;7.228;2024-01-10T07:59:59;6.03;;;3.03;;
50968;SDS011;36982;51.474;7.228;2024-01-10T08:02:24;6.03;;;3.23;;
50968;SDS011;36982;51.474;7.228;2024-01-10T08:04:50;5.10;;;2.87;;
50968;SDS011;36982;51.474;7.228;2024-01-10T08:07:17;3.53;;;1.63;;
50968;SDS011;36982;51.474;7.228;2024-01-10T08:09:42;6.40;;;3.43;;
50968;SDS011;36982;51.474;7.228;2024-01-10T08:12:08;5.83;;;2.70;;
50968;SDS011;36982;51.474;7.228;2024-01-10T08:14:34;7.47;;;3.50;;
50968;SDS011;36982;51.474;7.228;2024-01-10T08:16:59;3.67;;;1.97;;
50968;SDS011;36982;51.474;7.228;2024-01-10T08:19:25;6.23;;;3.10;;
50968;SDS011;36982;51.474;7.228;2024-01-10T08:21:52;7.00;;;3.33;;
50968;SDS011;36982;51.474;7.228;2024-01-10T08:24:18;5.73;;;2.47;;
50968;SDS011;36982;51.474;7.228;2024-01-10T08:26:44;5.87;;;2.57;;
50968;SDS011;36982;51.474;7.228;2024-01-10T08:29:10;6.17;;;2.23;;
50968;SDS011;36982;51.474;7.228;2024-01-10T08:31:36;6.07;;;3.00;;
50968;SDS011;36982;51.474;7.228;2024-01-10T08:34:01;9.33;;;3.80;;
50968;SDS011;36982;51.474;7.228;2024-01-10T08:36:27;4.33;;;2.27;;
50968;SDS011;36982;51.474;7.228;2024-01-10T08:38:53;4.70;;;2.37;;
50968;SDS011;36982;51.474;7.228;2024-01-10T08:41:19;5.07;;;2.67;;
50968;SDS011;36982;51.474;7.228;2024-01-10T08:43:46;3.63;;;1.83;;
50968;SDS011;36982;51.474;7.228;2024-01-10T08:46:11;10.60;;;3.60;;
50968;SDS011;36982;51.474;7.228;2024-01-10T08:48:37;8.73;;;3.83;;
50968;SDS011;36982;51.474;7.228;2024-01-10T08:51:03;5.30;;;2.50;;
50968;SDS011;36982;51.474;7.228;2024-01-10T08:53:28;8.03;;;4.17;;
50968;SDS011;36982;51.474;7.228;2024-01-10T08:55:54;8.57;;;4.10;;
50968;SDS011;36982;51.474;7.228;2024-01-10T08:58:20;11.03;;;4.70;;
50968;SDS011;36982;51.474;7.228;2024-01-10T09:00:46;7.83;;;4.03;;
50968;SDS011;36982;51.474;7.228;2024-01-10T09:03:11;7.03;;;4.43;;
50968;SDS011;36982;51.474;7.228;2024-01-10T09:05:37;9.03;;;4.17;;
50968;SDS011;36982;51.474;7.228;2024-01-10T09:08:03;8.87;;;4.73;;
50968;SDS011;36982;51.474;7.228;2024-01-10T09:10:29;8.13;;;4.50;;
50968;SDS011;36982;51.474;7.228;2024-01-10T09:12:54;12.20;;;4.40;;
50968;SDS011;36982;51.474;7.228;2024-01-10T09:15:20;14.03;;;4.17;;
50968;SDS011;36982;51.474;7.228;2024-01-10T09:17:45;5.07;;;3.00;;
50968;SDS011;36982;51.474;7.228;2024-01-10T09:20:11;3.57;;;2.57;;
50968;SDS011;36982;51.474;7.228;2024-01-10T09:22:38;9.17;;;5.03;;
50968;SDS011;36982;51.474;7.228;2024-01-10T09:25:04;9.47;;;3.80;;
50968;SDS011;36982;51.474;7.228;2024-01-10T09:27:31;7.90;;;4.27;;
50968;SDS011;36982;51.474;7.228;2024-01-10T09:29:58;10.27;;;4.67;;
50968;SDS011;36982;51.474;7.228;2024-01-10T09:32:26;11.97;;;4.70;;
50968;SDS011;36982;51.474;7.228;2024-01-10T09:34:52;9.83;;;4.93;;
50968;SDS011;36982;51.474;7.228;2024-01-10T09:37:18;7.70;;;4.70;;
50968;SDS011;36982;51.474;7.228;2024-01-10T09:39:44;10.00;;;4.60;;
50968;SDS011;36982;51.474;7.228;2024-01-10T09:42:09;8.93;;;4.13;;
50968;SDS011;36982;51.474;7.228;2024-01-10T09:44:35;10.27;;;4.67;;
50968;SDS011;36982;51.474;7.228;2024-01-10T09:47:00;8.77;;;3.70;;
50968;SDS011;36982;51.474;7.228;2024-01-10T09:49:27;8.83;;;4.73;;
50968;SDS011;36982;51.474;7.228;2024-01-10T09:52:03;7.70;;;4.07;;
50968;SDS011;36982;51.474;7.228;2024-01-10T09:54:34;12.23;;;5.63;;
50968;SDS011;36982;51.474;7.228;2024-01-10T09:57:03;8.87;;;4.03;;
50968;SDS011;36982;51.474;7.228;2024-01-10T09:59:29;10.17;;;5.00;;
50968;SDS011;36982;51.474;7.228;2024-01-10T10:01:55;9.40;;;4.50;;
50968;SDS011;36982;51.474;7.228;2024-01-10T10:04:23;8.67;;;4.90;;
50968;SDS011;36982;51.474;7.228;2024-01-10T10:06:59;11.23;;;5.30;;
50968;SDS011;36982;51.474;7.228;2024-01-10T10:09:26;11.67;;;4.90;;
50968;SDS011;36982;51.474;7.228;2024-01-10T10:11:56;12.27;;;5.87;;
50968;SDS011;36982;51.474;7.228;2024-01-10T10:14:23;9.83;;;4.47;;
50968;SDS011;36982;51.474;7.228;2024-01-10T10:16:51;8.20;;;4.60;;
50968;SDS011;36982;51.474;7.228;2024-01-10T10:19:23;11.03;;;5.63;;
50968;SDS011;36982;51.474;7.228;2024-01-10T10:21:49;10.13;;;5.53;;
50968;SDS011;36982;51.474;7.228;2024-01-10T10:24:15;7.63;;;4.37;;
50968;SDS011;36982;51.474;7.228;2024-01-10T10:26:42;12.37;;;4.70;;
50968;SDS011;36982;51.474;7.228;2024-01-10T10:29:08;5.77;;;2.93;;
50968;SDS011;36982;51.474;7.228;2024-01-10T10:31:34;11.10;;;4.80;;
50968;SDS011;36982;51.474;7.228;2024-01-10T10:34:00;9.07;;;5.40;;
50968;SDS011;36982;51.474;7.228;2024-01-10T10:36:27;12.77;;;5.30;;
50968;SDS011;36982;51.474;7.228;2024-01-10T10:38:58;10.33;;;5.37;;
50968;SDS011;36982;51.474;7.228;2024-01-10T10:41:25;10.37;;;5.63;;
50968;SDS011;36982;51.474;7.228;2024-01-10T10:43:52;9.83;;;5.43;;
50968;SDS011;36982;51.474;7.228;2024-01-10T10:46:20;9.60;;;5.47;;
50968;SDS011;36982;51.474;7.228;2024-01-10T10:48:48;11.13;;;5.60;;
50968;SDS011;36982;51.474;7.228;2024-01-10T10:54:12;10.27;;;5.60;;
50968;SDS011;36982;51.474;7.228;2024-01-10T10:56:40;12.80;;;5.40;;
50968;SDS011;36982;51.474;7.228;2024-01-10T10:59:08;11.07;;;5.70;;
50968;SDS011;36982;51.474;7.228;2024-01-10T11:01:37;12.87;;;6.47;;
50968;SDS011;36982;51.474;7.228;2024-01-10T11:04:04;10.03;;;6.23;;
50968;SDS011;36982;51.474;7.228;2024-01-10T11:06:31;11.60;;;5.60;;
50968;SDS011;36982;51.474;7.228;2024-01-10T11:09:02;12.07;;;6.70;;
50968;SDS011;36982;51.474;7.228;2024-01-10T11:24:53;11.50;;;5.20;;
50968;SDS011;36982;51.474;7.228;2024-01-10T11:27:19;13.03;;;5.97;;
50968;SDS011;36982;51.474;7.228;2024-01-10T11:29:45;8.37;;;4.00;;
50968;SDS011;36982;51.474;7.228;2024-01-10T11:32:15;11.77;;;6.23;;
50968;SDS011;36982;51.474;7.228;2024-01-10T11:37:19;13.27;;;5.90;;
50968;SDS011;36982;51.474;7.228;2024-01-10T11:39:45;8.80;;;3.83;;
50968;SDS011;36982;51.474;7.228;2024-01-10T11:42:10;11.90;;;5.57;;
50968;SDS011;36982;51.474;7.228;2024-01-10T11:44:47;11.50;;;5.87;;
50968;SDS011;36982;51.474;7.228;2024-01-10T11:47:16;11.80;;;6.00;;
50968;SDS011;36982;51.474;7.228;2024-01-10T11:49:53;9.90;;;4.83;;
50968;SDS011;36982;51.474;7.228;2024-01-10T11:52:21;11.60;;;6.00;;
50968;SDS011;36982;51.474;7.228;2024-01-10T11:54:47;16.40;;;5.60;;
50968;SDS011;36982;51.474;7.228;2024-01-10T11:57:14;12.40;;;6.17;;
50968;SDS011;36982;51.474;7.228;2024-01-10T11:59:45;13.67;;;6.10;;
50968;SDS011;36982;51.474;7.228;2024-01-10T12:02:11;9.97;;;5.93;;
50968;SDS011;36982;51.474;7.228;2024-01-10T12:04:38;12.97;;;6.13;;
50968;SDS011;36982;51.474;7.228;2024-01-10T12:07:05;11.10;;;4.83;;
50968;SDS011;36982;51.474;7.228;2024-01-10T12:09:32;9.43;;;5.53;;
50968;SDS011;36982;51.474;7.228;2024-01-10T12:11:58;12.97;;;5.80;;
50968;SDS011;36982;51.474;7.228;2024-01-10T12:14:24;9.80;;;5.97;;
50968;SDS011;36982;51.474;7.228;2024-01-10T12:16:51;14.87;;;6.50;;
50968;SDS011;36982;51.474;7.228;2024-01-10T12:19:17;11.70;;;5.90;;
50968;SDS011;36982;51.474;7.228;2024-01-10T12:21:43;13.80;;;6.17;;
50968;SDS011;36982;51.474;7.228;2024-01-10T12:24:09;14.40;;;5.13;;
50968;SDS011;36982;51.474;7.228;2024-01-10T12:26:34;12.80;;;5.97;;
50968;SDS011;36982;51.474;7.228;2024-01-10T12:29:01;11.37;;;6.53;;
50968;SDS011;36982;51.474;7.228;2024-01-10T12:31:31;11.97;;;5.83;;
50968;SDS011;36982;51.474;7.228;2024-01-10T12:33:57;14.90;;;7.20;;
50968;SDS011;36982;51.474;7.228;2024-01-10T12:36:24;12.00;;;6.47;;
50968;SDS011;36982;51.474;7.228;2024-01-10T12:38:50;12.33;;;6.30;;
50968;SDS011;36982;51.474;7.228;2024-01-10T12:41:16;11.03;;;6.57;;
50968;SDS011;36982;51.474;7.228;2024-01-10T12:43:43;12.77;;;6.10;;
50968;SDS011;36982;51.474;7.228;2024-01-10T12:46:14;11.50;;;6.23;;
50968;SDS011;36982;51.474;7.228;2024-01-10T12:48:40;13.27;;;6.13;;
50968;SDS011;36982;51.474;7.228;2024-01-10T12:51:10;13.67;;;6.37;;
50968;SDS011;36982;51.474;7.228;2024-01-10T12:56:04;11.07;;;4.27;;
50968;SDS011;36982;51.474;7.228;2024-01-10T12:58:30;11.37;;;5.83;;
50968;SDS011;36982;51.474;7.228;2024-01-10T13:00:57;9.63;;;5.93;;
50968;SDS011;36982;51.474;7.228;2024-01-10T13:03:23;12.80;;;6.23;;
50968;SDS011;36982;51.474;7.228;2024-01-10T13:05:49;13.77;;;5.60;;
50968;SDS011;36982;51.474;7.228;2024-01-10T13:08:18;15.77;;;6.20;;
50968;SDS011;36982;51.474;7.228;2024-01-10T13:10:44;13.60;;;5.97;;
50968;SDS011;36982;51.474;7.228;2024-01-10T13:13:13;10.70;;;5.93;;
50968;SDS011;36982;51.474;7.228;2024-01-10T13:15:39;12.20;;;6.00;;
50968;SDS011;36982;51.474;7.228;2024-01-10T13:18:05;9.17;;;3.67;;
50968;SDS011;36982;51.474;7.228;2024-01-10T13:20:32;11.37;;;5.30;;
50968;SDS011;36982;51.474;7.228;2024-01-10T13:22:57;11.20;;;5.03;;
50968;SDS011;36982;51.474;7.228;2024-01-10T13:25:23;9.00;;;5.23;;
50968;SDS011;36982;51.474;7.228;2024-01-10T13:27:52;8.80;;;3.30;;
50968;SDS011;36982;51.474;7.228;2024-01-10T13:30:18;12.20;;;6.00;;
50968;SDS011;36982;51.474;7.228;2024-01-10T13:32:47;12.70;;;6.23;;
50968;SDS011;36982;51.474;7.228;2024-01-10T13:35:13;12.63;;;6.67;;
50968;SDS011;36982;51.474;7.228;2024-01-10T13:37:41;15.93;;;6.80;;
50968;SDS011;36982;51.474;7.228;2024-01-10T13:40:07;13.73;;;6.23;;
50968;SDS011;36982;51.474;7.228;2024-01-10T13:42:35;11.03;;;5.33;;
50968;SDS011;36982;51.474;7.228;2024-01-10T13:45:02;10.00;;;5.77;;
50968;SDS011;36982;51.474;7.228;2024-01-10T13:47:30;12.17;;;6.20;;
50968;SDS011;36982;51.474;7.228;2024-01-10T13:49:56;10.70;;;6.30;;
50968;SDS011;36982;51.474;7.228;2024-01-10T13:52:21;15.70;;;6.10;;
50968;SDS011;36982;51.474;7.228;2024-01-10T13:54:47;13.80;;;6.03;;
50968;SDS011;36982;51.474;7.228;2024-01-10T13:57:12;12.70;;;5.93;;
50968;SDS011;36982;51.474;7.228;2024-01-10T13:59:38;10.73;;;5.60;;
50968;SDS011;36982;51.474;7.228;2024-01-10T14:02:03;12.43;;;6.30;;
50968;SDS011;36982;51.474;7.228;2024-01-10T14:04:29;13.10;;;6.03;;
50968;SDS011;36982;51.474;7.228;2024-01-10T14:06:55;11.00;;;5.67;;
50968;SDS011;36982;51.474;7.228;2024-01-10T14:09:20;16.97;;;6.43;;
50968;SDS011;36982;51.474;7.228;2024-01-10T14:11:46;11.83;;;5.97;;
50968;SDS011;36982;51.474;7.228;2024-01-10T14:14:16;11.03;;;5.67;;
50968;SDS011;36982;51.474;7.228;2024-01-10T14:16:43;11.87;;;5.37;;
50968;SDS011;36982;51.474;7.228;2024-01-10T14:19:08;11.70;;;5.87;;
50968;SDS011;36982;51.474;7.228;2024-01-10T14:21:34;14.20;;;6.37;;
50968;SDS011;36982;51.474;7.228;2024-01-10T14:24:00;13.80;;;4.90;;
50968;SDS011;36982;51.474;7.228;2024-01-10T14:26:26;12.13;;;5.90;;
50968;SDS011;36982;51.474;7.228;2024-01-10T14:28:52;10.47;;;5.00;;
50968;SDS011;36982;51.474;7.228;2024-01-10T14:31:20;11.90;;;5.70;;
50968;SDS011;36982;51.474;7.228;2024-01-10T14:33:46;8.77;;;5.17;;
50968;SDS011;36982;51.474;7.228;2024-01-10T14:36:12;9.90;;;4.93;;
50968;SDS011;36982;51.474;7.228;2024-01-10T14:38:38;11.40;;;5.43;;
50968;SDS011;36982;51.474;7.228;2024-01-10T14:41:04;11.73;;;5.97;;
50968;SDS011;36982;51.474;7.228;2024-01-10T14:43:31;11.90;;;5.27;;
50968;SDS011;36982;51.474;7.228;2024-01-10T14:45:57;12.70;;;6.00;;
50968;SDS011;36982;51.474;7.228;2024-01-10T14:48:23;12.03;;;6.50;;
50968;SDS011;36982;51.474;7.228;2024-01-10T14:50:48;10.07;;;6.10;;
50968;SDS011;36982;51.474;7.228;2024-01-10T14:53:14;10.17;;;5.50;;
50968;SDS011;36982;51.474;7.228;2024-01-10T14:55:40;10.43;;;5.63;;
50968;SDS011;36982;51.474;7.228;2024-01-10T14:58:05;11.33;;;5.77;;
50968;SDS011;36982;51.474;7.228;2024-01-10T15:00:32;13.93;;;6.33;;